Portada
METAR-TAF:

METAR-TAF

Aeropuertos :

Porto Santo, Portugal

Aeropuerto de Porto Santo

latitud: 33-04N, longitud: 016-21W, altitud: 97 m

Observación

El informe se hizo hace 20 minutos, a las 02:00 UTC
Viento 12 kt del norte
Temperatura 22°C
Humedad 65%
Presión 1020 hPa
Visibilidad 10 km o más
Escasas nubes a una altura de 1500 ft
Cielo nuboso a una altura de 3000 ft

METAR: LPPS 230200Z 35012KT 9999 FEW015 BKN030 22/15 Q1020

Hora: 03:20 (02:20 UTC)

Pronóstico

El informe se hizo hace 3 horas y 20 minutos, a las 23:00 UTC
Pronóstico válido del 23 a las 00 UTC al 24 a las 06 UTC
Viento 12 kt del norte-noreste
Visibilidad 10 km o más
Nubes dispersas a una altura de 1500 ft
Temporalmente
del 23 a las 00 UTC al 23 a las 12 UTC
Nubes dispersas a una altura de 1500 ft
Cielo nuboso a una altura de 3000 ft

TAF: LPPS 222300Z 2300/2406 02012KT 9999 SCT015 TEMPO 2300/2312 SCT015 BKN030

Observaciones y pronósticos meteorológicos de más de 4000 aeropuertos (mensajes METAR y TAF).

Los puntos amarillos y rojos representan las estaciones disponibles.

Ponga el ratón en el punto deseado para ver el nombre de la estación.

Haga clic para ver las observaciones y los pronósticos meteorológicos.

Para cambiar el mapa : haga clic en los botones verdes con una cruz de color negro para hacer un zoom, en el botón verde con un guión para alejar o en las flechas verdes para mapas adyacentes.


METAR-TAF: